Votre navigateur ne supporte pas le javascript!
Résultats - samedi 11 septembre 2021 à 18:33

Chronos Châtelleraudais (1)

19ème CHRONOS CHATELLERAUDAIS
Organisateur : AVENIR CYCLISTE CHATELLERAUDAIS
Catégorie : MINIMES  Distance : 6.81 Km
1 13 COTIER Bastien U.V.POITIERS Min 1 50860710034 0:10:36.84 38.49
2 15 CHAVANEL Clement AC CHATELLERAUDAIS Min 1 50861540104 0:10:44.18 0:00:07.34 38.07
3 8 BERLAN Tristan U.V.POITIERS Min 2 50860710314 0:10:50.68 0:00:13.84 37.66
4 11 CHEVALIER BAILLOU Pierre U.V.POITIERS Min 1 50860710273 0:10:51.91 0:00:15.07 37.60
5 14 LECOQ Baptiste ES TORIGNI Min 2 49500930383 0:11:14.81 0:00:37.97 36.32
6 4 LIMOUZIN Leo V.NAINTRE Min 1 50860680346 0:11:23.40 0:00:46.56 35.89
7 6 TARDY Paolo V.NAINTRE Min 2 50860680104 0:11:27.62 0:00:50.78 35.63
8 1 GATARD MATHIS C.POITEVIN Min 2 50860700585 0:11:41.87 0:01:05.03 34.92
9 7 FUZEAU YLAN BRESSUIRE ACTIVITES CYCLISTES Min 2 50791650289 0:11:59.15 0:01:22.31 34.10
10 10 MERCIER Jules C.POITEVIN Min 2 50860700137 0:12:00.15 0:01:23.31 34.05
11 9 GARNIER Nolann V.NAINTRE Min 1 50860680039 0:12:00.18 0:01:23.34 34.05
12 2 LIENART ANAEL U.V POITIERS Min 1 50860710298 0:12:04.78 0:01:27.94 33.82
13 5 ROCHARD DESSENOIX Axel U.V.POITIERS Min 1 50860710307 0:13:09.68 0:02:32.84 31.03
14 12 GAUFFREAU BOURBON Esteban V.NAINTRE Min 2 50860680375 0:13:14.40 0:02:37.56 30.88

Catégorie : CADETS Distance : 11,10 Km
1 51 DUBOIS Clement V.NAINTRE Cad 2 50860680214 0:16:43.370 39.84
2 39 BOUCHET Côme VS CHAMBRAISIEN Cad 1 44373420091 0:16:45.500 0:00:02.13 39.76
3 47 SORAIN Titouan AC CHATELLERAUDAIS Cad 1 50861540385 0:16:50.840 0:00:07.47 39.53
4 48 ROCHARD DESSENOIX LUCAS U.V.POITIERS Cad 2 50860710305 0:17:03.590 0:00:20.22 39.02
5 37 CHARLUET Enzo VC BLANCOIS Cad 2 44360320065 0:17:04.520 0:00:21.15 38.99
6 49 BITEAU GAUTIER VELO CLUB ESSARTAIS Cad 2 52851060008 0:17:06.430 0:00:23.06 38.95
7 45 FERREIRA Tiago P.ST FLORENT NIORT Cad 2 50790590256 0:17:08.810 0:00:25.44 38.83
8 50 SAMOYEAULT Paul C.POITEVIN Cad 2 50860700132 0:17:10.120 0:00:26.75 38.80
9 46 CHAMBON Lois C.POITEVIN Cad 1 50860700535 0:17:30.780 0:00:47.41 38.02
10 38 TURGNE Joshua P.ST FLORENT NIORT Cad 2 50790590249 0:17:40.420 0:00:57.05 37.70
11 33 GUILBAUD Nolan V.NAINTRE Cad 1 50860680140 0:17:42.240 0:00:58.87 37.63
12 43 HIBBERD Henry C.C.VERVANT Cad 2 50170790035 0:17:44.520 0:01:01.15 37.52
13 41 PIGNON Paulin AC CHATELLERAUDAIS Cad 2 50861540422 0:17:47.110 0:01:03.74 37.45
14 34 DEBORDE Emilien U.V.POITIERS Cad 1 50860710386 0:17:52.120 0:01:08.75 37.28
15 42 GREGOIRE Maxime C.POITEVIN Cad 1 50860700509 0:17:52.840 0:01:09.47 37.24
16 35 MICHON Augustin AC CHATELLERAUDAIS Cad 2 50861540439 0:18:05.490 0:01:22.12 36.83
17 36 MIGNON Nathan V.C.LOUDUN Cad 1 50860650142 0:18:21.590 0:01:38.22 36.26
18 40 TOUCHARD Mael V.NAINTRE Cad 2 50860680141 0:18:45.370 0:02:02.00 35.52
19 44 GRANDON Enzo U.V.POITIERS Cad 1 50860710269 0:19:37.650 0:02:54.28 33.9

Catégorie : DAMES Min. & Cad. Distance : 6.81 Km
1 24 FROUARD Diane TULLE CYCLISME COMPETITION Cad 1 50190040090 0:11:20.680 36.00
2 22 SANCHEZ EMMA SCO CYCLISME ANGERS Min 2 52490130040 0:11:23.840 0:00:03.16 35.84
3 26 AUDE Manola P.ST FLORENT NIORT Cad 2 50790590118 0:11:26.460 0:00:05.78 35.74
4 28 BASTIERE ROMELIE AC CHATELLERAUDAIS Cad 1 50861540417 0:11:32.400 0:00:11.72 35.43
5 27 BONNIN NOEMIE LA ROCHE SUR YON VENDEE CYCLISME Cad 2 52850640661 0:11:32.710 0:00:12.03 35.38
6 20 VERDIER Juliette TULLE CYCLISME COMPETITION Min 2 50190040083 0:11:58.460 0:00:37.78 34.14
7 25 PERRIER Alice MERIGNAC VC Cad 2 50330260297 0:12:25.060 0:01:04.38 32.91
8 21 TESSIER Anastasia V.NAINTRE Min 2 50860680091 0:12:28.370 0:01:07.69 32.78
9 23 TOUCHARD Eloane V.NAINTRE Min 1 50860680351 0:14:25.240 0:03:04.56 28.34

CHAMPIONNAT RÉGIONAL NOUVELLE AQUITAINE MINIMRS
1 20 VERDIER Juliette TULLE CYCLISME COMPETITION Min 2 50190040083
2 21 TESSIER Anastasia V.NAINTRE Min 2 50860680091
3 23 TOUCHARD Eloane V.NAINTRE Min 1 50860680351

CHAMPIONNAT RÉGIONAL NOUVELLE AQUITAINE CADETTES
1 24 FROUARD Diane TULLE CYCLISME COMPETITION Cad 1 50190040090
2 26 AUDE Manola P.ST FLORENT NIORT Cad 2 50790590118
3 28 BASTIERE ROMELIE AC CHATELLERAUDAIS Cad 1 50861540417
4 25 PERRIER Alice MERIGNAC VC Cad 2 50330260297

Catégorie : JUNIORS Distance : 21,0 Km
1 68 POUVREAULT Gregory V.C.SAINTAIS Jun 2 50170500236 0:27:43.490 45.46
2 65 CONOR Paul V.C.ROCHEFORT Jun 2 50170450163 0:28:17.000 0:00:33.51 44.55
3 66 MAINGUENAUD Lucas P.ST FLORENT NIORT Jun 1 50790590027 0:28:38.000 0:00:54.51 44.00
4 67 DELHOMME Rafael C.POITEVIN Jun 1 50860700421 0:28:48.000 0:01:04.51 43.75
5 57 TROGER Lucas P.ST FLORENT NIORT Jun 1 50790590039 0:28:50.180 0:01:06.69 43.70
6 64 DROMAIN Remi P.ST FLORENT NIORT Jun 2 50790590222 0:29:25.560 0:01:42.07 42.81
7 62 DUVAL Alexandre DORDOGNE SUD CYCLISME Jun 2 50242920129 0:31:49.740 0:04:06.25 39.58
8 59 MARNETTO Hugo V.C.CHARENTE OCEAN Jun 2 50170300037 0:32:56.560 0:05:13.07 38.24
9 61 MOREAU Sacha VC CHATILLON Jun 1 50790820138 0:33:05.720 0:05:22.23 38.07
10 63 NAUDON Clement C.POITEVIN Jun 1 50860700144 0:33:21.900 0:05:38.41 37.76
11 60 COTIER Alexis U.V.POITIERS Jun 1 50860710036 0:33:26.780 0:05:43.29 37.67
12 56 ROBICHE Matthéo C.POITEVIN Jun 1 50860700624 0:34:56.110 0:07:12.62 36.07
13 58 TURCAS Axel AC CHATELLERAUDAIS Jun 1 50861540093 0:37:00.710 0:09:17.22 34.04

Source: AC CHATELLERAUDAIS

Résultats - mardi 16 juillet 2019 à 19:27

Trophée Madiot

Trophée Madiot : Le grand bond en avant de Grégory Pouvreault

Cinquième manche du Trophée Madiot-Crédit Mutuel 2019, le contre-la-montre de Renazé a délivré le même tiercé que celui de Châteaubriant, en avril, avec, toujours, le champion de Bretagne de la spécialité Eddy Le Huitouze sur la plus haute marche du podium.
Le Morbihannais, déjà vainqueur sur le même tracé en cadets 1 l’an passé, a réalisé un temps similaire, seulement plus élevé d’une seconde. Flavio Mauricio et régory Pouvreault ont échangé leurs places par rapport à Châteaubriant, devançant deux coureurs qui n’avaient pas encore participé au Trophée : le Creusois Killian Quisserne et le Toulousain Célestin Wattelle.
Ce dernier a éclaboussé de son talent la course en ligne du 14 juillet en se lançant dans un raid solitaire dès la deuxième côté répertoriée pour le GP de la montagne Dirickx qu’il a enlevé haut la main.
Au 25e kilomètre de course, il comptait 1’35’’ d’avance. Il a résisté plus de trente bornes au retour de la première contre-attaque. A l’approche du circuit final de Renazé, il a vu rappliquer Grégory Pouvreault, Pierre Thierry, Flavien Brispot et Grégoire Babin et s’est incliné au sprint, prenant la troisième place derrière Grégory Pouvreault, grand bénéficiaire du weekend mayennais. Le Charentais s’installe sur le podium du Trophée Madiot-Crédit Mutuel 2019 en compagnie de Flavio Mauricio, qui conforte sa position de leader, et Eddy Le Huitouze avant le dernier tiers de la série qui comprend encore l’épreuve de Civray le 7 août, la Polycadets à St-Martin-de-Landelles le 18 août et la finale à Laval le 15 août.

Classement de la course en ligne de Renazé (160 partants, 122 classés)
1. Grégory Pouvreault (VC Saintes), les 78,2km en 2h7’31’’
2. Pierre Thierry (OC Locminé)
3. Célestin Wattelle (CD Haute-Garonne)
4. Flavien Brispot (VS Cacien)
5. Grégoire Babin (AC Brévinois)
6. Enzo Boulet (CC Plancoët)
7. Théo Laffineur (CS Casteljalousain)
8. Corentin Bautrait (VC Rouen)
9. Clément Millet (CD Haute-Garonne)
10. Sacha Leboucher (VC La Pomme Marseille)
11. Max Delarue (Périers C.)
12. Antoine Lemir (VCA St-Quentin)
13. Andrea Sanchez (CC Marmande)
14. Romain Lapouge Loyzance (CAM Bordeaux)
15. Alexandre Baron (VC Plélan)
16. Flavio Mauricio (Parisis AC 95)
17. Thibaud Bridron (Guidon chalettois)
18. Théo Sabatier (UC Monaco, premier cadet 1)
19. Mathis Tiphaigne (UC Monaco)
20. Eddy Le Huitouze (EC Pluvigner)
21. Corentin Devroute (ASPTT Dijon)
22. Gaelig Glon (US La Gacilly)
23. Ronan Grosset (CC Plancoët)
24. Dorian Perleaux (UC Montgenoise)
25. Lorenzo Moreau (UC Sud 53)

Classement du Trophée Madiot-Crédit Mutuel 2019 après la sixième manche à Renazé :
1. Flavio Mauricio (Parisis AC 95), 332 points
2. Eddy Le Huitouze (EC Pluvigner), 311
3. Grégory Pouvreault (VC Saintes), 285
4. Enzo Boulet (CC Plancoët), 262
5. Thibaud Bridron (Guidon chalettois), 252
6. Yanis Seguin (Angoulême VC/VC Saintes), 225
7. Pierre Thierry (OC Locminé), 211
8. Julian Cariou (VS Quimper), 185
9. Raphaël Clouaire (VC Lisieux), 152
10. Lorenzo Moreau (UC Sud 53), 149
11. Léo Kraemer (Road Team Val de Moder), 148
12. Mathis Tiphaigne (UC Monaco), 146
13. Matthis Delille (AS Thourotte), 137
14. Gaelig Glon (US La Gacilly), 134
15. Gaspard André (Nantes DVS), 134
16. Célestin Wattelle (CD Haute-Garonne), 127
17. Nikiforos Arvanitou (Nantes DVS), 126
18. Matheo Guimbretière (VC Les Herbiers), 121
19. Romain Lapouge Loyzance (CAM Bordeaux), 121
20. Hugo Morin (CA Evron), 109
21. Killian Gesnouin (UC Nantes-Atlantique), 108
22. Gauthier Rouxel (EC Stéphanois), 103
23. Axel Prod’homme (CA Evron), 102
24. Corentin Bautrait (VC Rouen 76), 101
25. Noa Le Claire (US Pontchâteau), 99
26. Louka Lesueur (UC Darnétal), 90
27. Thomas Touchard (UC Montgenoise), 89
28. Thomas Hinault (V. Vannes), 83
29. Noa Dupuis (PC Saumur), 80
30. Jules Dessay (VC Contres), 77
31. Hugo Le Mat (EC Quéven), 77
32. Rafael Delhomme (C. Poitevin), 76
33. Antoine Lemir (VCA St-Quentin), 73
34. Clément Millet (CD Haute-Garonne), 73
35. Paul Sulletis (VCP Langon), 72
36. Andrea Sanchez (CC Marmande), 72
37. Max Delarue (Périers C.), 72
38. Grégoire Babin (AC Brévinois), 71
39. Kiri Shinohara (USSA Pavilly-Barentin), 69
40. Mathis Sellier (Parisis AC 95), 68
41. Dylan Durand (CC Igny-Palaiseau), 67
42. Sacha Le Boucher (VC La Pomme Marseille), 65
43. Dorian Perleaux (UC Montgenoise), 63
44. Toby Chatonnet (VC Lillebonne), 60
45. Kilyan Delmotte (VC Montbéliard), 60
46. Brieuc Rolland (UCP Morlaix), 60
47. Corentin Devroute (ASPTT Dijon), 59
48. Hans Rullier (PC Saumur), 55
49. Djiovany Dollin (Team 94 Cycling), 55
50. Lucas Lebourg (VC Rouen), 50
51. Luc Dauge (La Roche VC), 49
52. Thibaud Gruel (UC Joué-lès-Tours), 49
53. Killian Quisserne (Creuse Oxygène), 49
54. Théo Pasquier (UC Vendôme), 49
55. Flavien Brispot (VS Cacien), 49
56. Théo Sabatier (UC Monaco), 48
57. Lilian Foureau (CC Landivy), 45
58. Théo Laffineur (CS Casteljalousain), 44
59. Kylian Germain (EC Quéven), 44
60. Tom Reignier (VC St-Antoine/Gavotte), 43
61. Enzo Briand (UC Briochine), 42
62. Dorian Ruel (AC Brévinois), 42
63. Remi Dromain (UV Poitiers), 41
64. Tristan Verrier (CA Evron), 40
65. Baptiste Poulard (Paris CO), 40
66. Matthieu Gourguechon (Team Avesnois), 39
67. Lucas Gohon (ES Auneau), 39
68. Alexandre Boxe (CSM Clamart), 38
69. Enzo Bozzi (CD Maine-et-Loire), 38
70. Maxime Renoux (Aviron Bayonnais), 37
71. Mathieu Cordelier (OCC Cesson), 37
72. Rubens Josse (CD Haute-Garonne), 36
73. Alexandre Baron (VC Plélan), 36
74. Nathan Molle (La Roche VC), 36
75. Jordan Lafeuille (EC d’Ambazac), 34
76. Gwendael Dufour (Beauvais TC), 33
77. Fabien Potet (CA Civray), 33
78. Augustin Davy (CSM Clamart), 32
79. Lucas Bertin (EC Quéven), 32
80. Kilian Ledanois (VC Challans), 32
81. Antonin Poirier (UC Nantes-Atlantique), 32
82. Vincent Cloarec (Aulne OC), 31
83. Quentin Lucas (US Pontchâteau), 31
84. Robin Mahier (VC Lionnais), 30
85. Julien Lemoine (VC Contres), 30
86. Julian Apvrillé (UC Auray), 30
87. Jules Engels (CC Nogent/Oise), 29
88. Hugo Mulon (CA Evron), 29
89. Mathias Sanlaville (Cours-la-Ville), 28
90. Quentin Chiron (Erdre-et-Loire C.), 28
91. Edgar Laurensot (OCC Cesson), 28
92. Ronan Grosset (CC Plancoët), 28
93. Clément Dormy (US Métro), 27
94. Arnaud Morillon (VC Les Herbiers), 27
95. Théo Rifflet (VC Rouen), 25
96. Arthur Kandissounon (VCA St-Quentin), 24
97. Romain Le Porh (Véloce Vannes), 23
98. Celio Laire (VC Montigny-Bretonneux), 23
99. Titouan Maitre (UV Limoges), 22
100. Alexis Chauviré (Laval Cyclisme 53), 22
101. Noé Colsy (Team 94 Cycling), 21
102. Baptiste Dhenin (CC Villeneuve), 20
103. Victor Drouet (EC Belinoise), 20
104. Romain Bréant (ASPTT Brive), 19
105. Leon Hardy (CA Evron), 19
106. Stefan Cohen (VC St-Sébastien), 19
107. Axel Jouault (CC Vitré), 19
108. Matéo Jot (UVC Charleville-Mézières), 18
109. Mathieu Le Metayer (CC Igny-Palaiseau), 17
110. Noe Cramette (EC Vernouillet), 17
111. Martin Orriere (CC Vitré), 17
112. Yoan Cornuaille (Paris CO), 16
113. Flavian Le Nay (VS Quimper), 16
114. Maxime Aubey (US Pétruvienne), 15
115. Maxime Colin (VCP Langon), 14
116. Theo Leveque (AC Brevinois), 14
117. Jordan Felgueiras (Ol. CVO), 13
118. Gauthier Morel (Kiclos Brest), 12
119. Louis Nicoleau (SC Perigord), 12
120. Alexandre Labarre (VS Mesanger), 12
121. Marc Hamelin (EC Belinoise), 11
122. Gabriel Gouessant (CC Moncontour), 11
123. Edouard Senger (Road Team Val de Moder), 10
124. Octave Pance (CSM Clamart), 9
125. Paul Conor (VC Rochefort), 9
126. Antoine Geslin (Angers Cyclisme), 9
127. Lucas Fer (Verrieres AC), 9
128. Ronan Caër (CC Bourg-Blanc), 9
129. Julien Azile Lozac’h (EC d’Ambazac), 8
130. Axel Treffandier (VC Rochefort), 8
131. Antoine Le Fresne (VS Quimper), 8
132. Marius Masoch (UA La Rochefoucauld), 7
133. Lucas Dougny (ASPTT Dijon), 7
134. Allan Leroux (VCA St-Quentin), 7
135. Axel Tardif (VC St-Sébastien), 7
136. Tom Tassard (Aix VTT), 6
137. Ewen Marchais (VC Challans), 6
138. Angus Boulaire (JS Ferté Gaucher), 5
139. Robin Voisin (Le Mans SV), 5
140. Hugo Petit (Arras VC), 5
141. Samuel Durand (US Pontchâteau), 4
142. Theo Chapeleau (VC Les Herbiers), 3
143. Arthur Legrand (VS Quimper), 3
144. Thibaut Gaschet (VC St-Sébastien), 3
145. Tudal Le Nagard (CC Blavet), 2
146. Lucas Person Kersuzan (UC Auray), 1

Remerciements à Jean-François QUENET

 

 

 

TOUTE L'INFO

Please publish modules in offcanvas position.